Terminal Aerodrome Forecast
Issued by NWS

Home | Current Version | Previous Version | Text Only | Print | Product List | Glossary On
Versions: 1 2 3 4 5 6 7 8 9 10 11 12 13
000
FTUS46 KMTR 022340
TAFSTS
TAF
KSTS 022340Z 0300/0324 19009KT P6SM FEW050
     FM030400 16005KT P6SM SCT200
     FM030600 15004KT 6SM BR OVC010
     FM031800 VRB03KT P6SM SCT012 BKN200
     FM032100 19010KT P6SM BKN200=

USA.gov is the U.S. government's official web portal to all federal, state and local government web resources and services.